createdAt,value
2023-05-10T00:01:12.289Z,10.68
2023-05-10T00:03:59.487Z,8.38
2023-05-10T00:06:46.698Z,7.55
2023-05-10T00:09:33.943Z,7.03
2023-05-10T00:12:21.259Z,8.98
2023-05-10T00:15:09.354Z,9.38
2023-05-10T00:17:56.631Z,11.02
2023-05-10T00:20:43.860Z,9.15
2023-05-10T00:23:31.080Z,10.27
2023-05-10T00:26:18.349Z,9.45
2023-05-10T00:29:05.600Z,10.45
2023-05-10T00:31:52.799Z,7.43
2023-05-10T00:34:40.014Z,10.70
2023-05-10T00:37:27.242Z,8.32
2023-05-10T00:40:15.090Z,8.85
2023-05-10T00:43:02.528Z,11.98
2023-05-10T00:45:50.664Z,14.93
2023-05-10T00:48:37.948Z,9.07
2023-05-10T00:51:25.612Z,8.07
2023-05-10T00:54:14.984Z,10.25
2023-05-10T00:57:02.416Z,11.27
2023-05-10T00:59:50.408Z,8.48
2023-05-10T01:02:37.926Z,8.85
2023-05-10T01:05:25.614Z,9.57
2023-05-10T01:08:12.946Z,9.35
2023-05-10T01:11:00.493Z,11.90
2023-05-10T01:13:53.885Z,10.77
2023-05-10T01:16:42.752Z,11.13
2023-05-10T01:19:32.214Z,11.23
2023-05-10T01:22:53.270Z,12.18
2023-05-10T01:25:57.738Z,9.32
2023-05-10T01:29:12.795Z,11.27
2023-05-10T01:32:21.445Z,12.27
2023-05-10T01:35:27.745Z,9.90
2023-05-10T01:38:38.952Z,10.43
2023-05-10T01:41:58.466Z,11.48
2023-05-10T01:45:15.618Z,12.55
2023-05-10T01:48:15.845Z,11.50
2023-05-10T01:51:03.851Z,11.48
2023-05-10T01:53:55.029Z,10.95
2023-05-10T01:56:44.829Z,10.40
2023-05-10T01:59:41.914Z,11.90
2023-05-10T02:02:31.195Z,11.20
2023-05-10T02:05:19.986Z,10.88
2023-05-10T02:08:08.691Z,10.60
2023-05-10T02:10:57.531Z,15.00
2023-05-10T02:13:46.146Z,12.95
2023-05-10T02:16:33.702Z,12.80
2023-05-10T02:19:23.019Z,13.93
2023-05-10T02:22:11.350Z,11.45
2023-05-10T02:25:00.622Z,11.32
2023-05-10T02:27:49.368Z,12.88
2023-05-10T02:30:37.270Z,13.50
2023-05-10T02:33:25.051Z,11.45
2023-05-10T02:36:13.507Z,12.35
2023-05-10T02:39:03.223Z,12.68
2023-05-10T02:41:52.910Z,13.75
2023-05-10T02:44:42.321Z,14.05
2023-05-10T02:47:30.770Z,12.50
2023-05-10T02:50:18.347Z,12.23
2023-05-10T02:53:12.644Z,12.68
2023-05-10T02:56:05.183Z,13.20
2023-05-10T02:58:52.843Z,12.80
2023-05-10T03:01:42.272Z,13.82
2023-05-10T03:04:29.527Z,11.48
2023-05-10T03:07:18.055Z,10.90
2023-05-10T03:10:06.333Z,10.73
2023-05-10T03:13:21.881Z,11.07
2023-05-10T03:16:17.716Z,11.65
2023-05-10T03:19:10.183Z,11.07
2023-05-10T03:22:01.007Z,17.33
2023-05-10T03:24:49.980Z,17.90
2023-05-10T03:27:40.094Z,12.48
2023-05-10T03:30:27.879Z,11.63
2023-05-10T03:33:15.354Z,10.80
2023-05-10T03:36:02.553Z,11.25
2023-05-10T03:38:49.842Z,12.65
2023-05-10T03:41:37.014Z,12.00
2023-05-10T03:44:24.213Z,11.90
2023-05-10T03:47:11.412Z,13.73
2023-05-10T03:49:58.619Z,13.02
2023-05-10T03:52:46.213Z,14.95
2023-05-10T03:55:35.575Z,16.25
2023-05-10T03:58:22.934Z,17.63
2023-05-10T04:01:10.106Z,17.23
2023-05-10T04:03:57.425Z,16.90
2023-05-10T04:06:44.703Z,18.17
2023-05-10T04:09:31.968Z,16.15
2023-05-10T04:12:19.164Z,16.27
2023-05-10T04:15:07.547Z,17.77
2023-05-10T04:17:54.848Z,20.00
2023-05-10T04:20:42.089Z,14.57
2023-05-10T04:23:29.320Z,18.10
2023-05-10T04:26:16.952Z,21.17
2023-05-10T04:29:04.254Z,15.85
2023-05-10T04:31:52.019Z,18.45
2023-05-10T04:34:39.265Z,18.60
2023-05-10T04:37:26.458Z,20.30
2023-05-10T04:40:13.964Z,19.08
2023-05-10T04:43:01.191Z,19.45
2023-05-10T04:45:48.476Z,20.20
2023-05-10T04:48:35.746Z,19.17
2023-05-10T04:51:22.959Z,21.30
2023-05-10T04:54:10.429Z,19.60
2023-05-10T04:56:57.684Z,20.23
2023-05-10T04:59:44.868Z,23.63
2023-05-10T05:02:32.255Z,22.05
2023-05-10T05:05:19.699Z,21.90
2023-05-10T05:08:07.023Z,22.85
2023-05-10T05:10:54.336Z,20.63
2023-05-10T05:13:41.624Z,21.88
2023-05-10T05:16:31.309Z,20.20
2023-05-10T05:19:18.647Z,20.13
2023-05-10T05:22:08.402Z,22.67
2023-05-10T05:24:56.430Z,20.48
2023-05-10T05:27:43.759Z,23.23
2023-05-10T05:30:31.131Z,20.92
2023-05-10T05:33:18.417Z,18.65
2023-05-10T05:36:06.751Z,22.48
2023-05-10T05:38:53.963Z,21.17
2023-05-10T05:41:41.152Z,23.45
2023-05-10T05:44:29.861Z,18.92
2023-05-10T05:47:17.229Z,22.10
2023-05-10T05:50:04.752Z,21.20
2023-05-10T05:52:52.253Z,18.95
2023-05-10T05:55:39.508Z,22.00
2023-05-10T05:58:27.054Z,18.45
2023-05-10T06:01:14.514Z,19.83
2023-05-10T06:04:01.752Z,19.98
2023-05-10T06:06:48.980Z,19.13
2023-05-10T06:09:36.225Z,18.60
2023-05-10T06:12:23.408Z,19.42
2023-05-10T06:15:11.217Z,17.20
2023-05-10T06:17:58.547Z,19.58
2023-05-10T06:20:45.920Z,19.58
2023-05-10T06:23:33.137Z,21.73
2023-05-10T06:26:21.928Z,20.98
2023-05-10T06:29:09.134Z,20.10
2023-05-10T06:31:56.435Z,21.02
2023-05-10T06:34:44.654Z,21.98
2023-05-10T06:37:31.826Z,18.35
2023-05-10T06:40:19.927Z,16.88
2023-05-10T06:43:07.275Z,15.70
2023-05-10T06:45:54.495Z,12.75
2023-05-10T06:48:42.369Z,12.55
2023-05-10T06:51:29.578Z,11.65
2023-05-10T06:54:16.832Z,14.60
2023-05-10T06:57:07.150Z,12.30
2023-05-10T06:59:58.676Z,9.48
2023-05-10T07:02:46.197Z,7.78
2023-05-10T07:05:33.537Z,9.75
2023-05-10T07:08:20.770Z,6.78
2023-05-10T07:11:08.454Z,8.43
2023-05-10T07:13:55.657Z,5.28
2023-05-10T07:16:43.291Z,7.60
2023-05-10T07:19:30.843Z,6.75
2023-05-10T07:22:18.278Z,6.07
2023-05-10T07:25:05.958Z,5.32
2023-05-10T07:27:53.551Z,5.90
2023-05-10T07:30:40.947Z,4.55
2023-05-10T07:33:28.205Z,6.45
2023-05-10T07:36:15.597Z,5.90
2023-05-10T07:39:03.106Z,7.32
2023-05-10T07:41:50.350Z,6.13
2023-05-10T07:44:37.529Z,8.45
2023-05-10T07:47:24.904Z,7.80
2023-05-10T07:50:12.219Z,11.25
2023-05-10T07:52:59.543Z,8.50
2023-05-10T07:55:55.679Z,10.98
2023-05-10T07:58:42.910Z,9.48
2023-05-10T08:01:35.118Z,8.63
2023-05-10T08:04:22.361Z,10.80
2023-05-10T08:07:09.731Z,10.57
2023-05-10T08:09:58.042Z,9.77
2023-05-10T08:12:45.574Z,9.23
2023-05-10T08:15:32.742Z,8.13
2023-05-10T08:18:22.032Z,10.65
2023-05-10T08:21:10.063Z,8.07
2023-05-10T08:23:57.279Z,9.60
2023-05-10T08:26:44.481Z,9.15
2023-05-10T08:29:38.651Z,11.65
2023-05-10T08:32:33.826Z,9.73
2023-05-10T08:35:20.994Z,7.63
2023-05-10T08:38:08.313Z,8.18
2023-05-10T08:41:00.076Z,7.60
2023-05-10T08:43:47.749Z,10.50
2023-05-10T08:46:37.770Z,8.65
2023-05-10T08:49:28.432Z,9.43
2023-05-10T08:52:17.609Z,8.15
2023-05-10T08:55:05.135Z,9.95
2023-05-10T08:57:52.608Z,13.40
2023-05-10T09:00:39.975Z,8.68
2023-05-10T09:03:27.580Z,6.53
2023-05-10T09:06:15.292Z,7.63
2023-05-10T09:09:04.309Z,9.30
2023-05-10T09:11:52.521Z,8.30
2023-05-10T09:14:40.504Z,9.95
2023-05-10T09:17:30.044Z,8.85
2023-05-10T09:20:18.663Z,8.30
2023-05-10T09:23:06.786Z,9.57
2023-05-10T09:26:05.563Z,7.63
2023-05-10T09:28:57.205Z,7.10
2023-05-10T09:31:51.911Z,7.40
2023-05-10T09:34:41.402Z,6.22
2023-05-10T09:37:31.559Z,6.50
2023-05-10T09:40:23.898Z,7.43
2023-05-10T09:43:11.861Z,5.72
2023-05-10T09:45:59.055Z,7.13
2023-05-10T09:48:48.529Z,8.48
2023-05-10T09:51:36.880Z,7.30
2023-05-10T09:54:25.218Z,7.47
2023-05-10T09:57:22.307Z,8.38
2023-05-10T10:00:11.262Z,7.75
2023-05-10T10:03:00.189Z,7.20
2023-05-10T10:05:48.825Z,6.97
2023-05-10T10:08:36.555Z,4.50
2023-05-10T10:11:25.298Z,5.72
2023-05-10T10:14:13.595Z,6.13
2023-05-10T10:19:52.582Z,5.63
2023-05-10T10:22:39.960Z,4.63
2023-05-10T10:25:27.559Z,4.03
2023-05-10T10:28:26.149Z,5.35
2023-05-10T10:31:36.128Z,4.32
2023-05-10T10:34:29.141Z,2.90
2023-05-10T10:37:16.444Z,2.83
2023-05-10T10:40:35.825Z,3.67
2023-05-10T10:43:28.437Z,3.50
2023-05-10T10:46:18.139Z,3.10
2023-05-10T10:49:12.238Z,2.70
2023-05-10T10:52:17.708Z,2.65
2023-05-10T10:55:24.298Z,3.03
2023-05-10T10:58:11.576Z,2.60
2023-05-10T11:01:19.939Z,4.35
2023-05-10T11:04:07.192Z,3.72
2023-05-10T11:07:17.649Z,3.42
2023-05-10T11:10:08.180Z,3.22
2023-05-10T11:13:06.920Z,2.65
2023-05-10T11:15:54.980Z,3.10
2023-05-10T11:18:52.915Z,2.55
2023-05-10T11:21:51.930Z,3.08
2023-05-10T11:24:39.240Z,2.55
2023-05-10T11:27:26.728Z,2.60
2023-05-10T11:30:15.273Z,2.88
2023-05-10T11:33:02.973Z,3.22
2023-05-10T11:35:50.641Z,3.30
2023-05-10T11:38:37.875Z,3.88
2023-05-10T11:41:26.226Z,5.05
2023-05-10T11:44:16.615Z,3.63
2023-05-10T11:47:04.530Z,6.68
2023-05-10T11:49:52.997Z,4.43
2023-05-10T11:52:40.251Z,4.18
2023-05-10T11:55:34.556Z,4.47
2023-05-10T11:58:23.603Z,4.65
2023-05-10T12:01:11.707Z,4.72
2023-05-10T12:04:01.291Z,3.38
2023-05-10T12:06:48.823Z,4.68
2023-05-10T12:09:43.709Z,3.72
2023-05-10T12:12:46.810Z,3.90
2023-05-10T12:15:34.028Z,3.95
2023-05-10T12:18:26.173Z,4.00
2023-05-10T12:21:13.654Z,3.00
2023-05-10T12:24:04.813Z,5.40
2023-05-10T12:26:52.321Z,3.60
2023-05-10T12:29:45.567Z,3.75
2023-05-10T12:32:42.892Z,3.35
2023-05-10T12:35:33.810Z,3.72
2023-05-10T12:38:29.938Z,3.03
2023-05-10T12:41:19.027Z,3.75
2023-05-10T12:44:06.274Z,3.83
2023-05-10T12:46:53.421Z,3.30
2023-05-10T12:49:40.768Z,3.92
2023-05-10T12:52:28.754Z,3.30
2023-05-10T12:55:16.177Z,4.40
2023-05-10T12:58:03.354Z,3.58
2023-05-10T13:00:52.703Z,4.35
2023-05-10T13:03:39.954Z,3.50
2023-05-10T13:06:27.158Z,4.95
2023-05-10T13:09:14.379Z,3.33
2023-05-10T13:12:01.668Z,3.20
2023-05-10T13:14:48.864Z,4.03
2023-05-10T13:17:36.288Z,3.38
2023-05-10T13:20:23.556Z,3.95
2023-05-10T13:23:11.129Z,2.92
2023-05-10T13:25:58.417Z,3.15
2023-05-10T13:28:46.938Z,3.22
2023-05-10T13:31:34.940Z,2.88
2023-05-10T13:34:22.336Z,3.40
2023-05-10T13:37:09.480Z,3.30
2023-05-10T13:39:56.740Z,4.22
2023-05-10T13:42:43.857Z,4.15
2023-05-10T13:45:31.019Z,3.30
2023-05-10T13:48:18.508Z,3.83
2023-05-10T13:51:05.779Z,4.22
2023-05-10T13:53:53.199Z,4.90
2023-05-10T13:56:41.967Z,4.50
2023-05-10T13:59:30.160Z,4.32
2023-05-10T14:02:17.371Z,3.45
2023-05-10T14:05:05.553Z,4.47
2023-05-10T14:07:52.767Z,5.10
2023-05-10T14:10:40.949Z,3.60
2023-05-10T14:13:28.578Z,3.70
2023-05-10T14:16:16.030Z,3.70
2023-05-10T14:19:03.894Z,3.28
2023-05-10T14:21:52.972Z,3.40
2023-05-10T14:24:40.260Z,4.38
2023-05-10T14:27:27.542Z,3.63
2023-05-10T14:30:15.953Z,3.50
2023-05-10T14:33:03.814Z,4.38
2023-05-10T14:35:51.410Z,3.95
2023-05-10T14:38:38.563Z,3.80
2023-05-10T14:41:25.786Z,5.85
2023-05-10T14:44:13.009Z,5.57
2023-05-10T14:47:00.887Z,4.78
2023-05-10T14:49:48.365Z,4.93
2023-05-10T14:52:35.964Z,7.47
2023-05-10T14:55:23.134Z,8.60
2023-05-10T14:58:10.332Z,7.28
2023-05-10T15:00:57.915Z,7.28
2023-05-10T15:03:45.728Z,9.10
2023-05-10T15:06:34.835Z,9.25
2023-05-10T15:09:22.065Z,7.20
2023-05-10T15:12:09.231Z,7.93
2023-05-10T15:14:56.446Z,9.32
2023-05-10T15:17:43.735Z,9.32
2023-05-10T15:20:31.037Z,8.77
2023-05-10T15:23:18.763Z,8.25
2023-05-10T15:26:06.139Z,9.10
2023-05-10T15:28:53.659Z,10.98
2023-05-10T15:31:41.063Z,13.07
2023-05-10T15:34:29.681Z,12.63
2023-05-10T15:37:16.905Z,12.02
2023-05-10T15:40:05.089Z,13.60
2023-05-10T15:42:52.324Z,11.25
2023-05-10T15:45:39.549Z,10.52
2023-05-10T15:48:26.731Z,10.50
2023-05-10T15:51:13.931Z,7.28
2023-05-10T15:54:07.241Z,7.82
2023-05-10T15:56:55.519Z,8.13
2023-05-10T15:59:42.959Z,8.00
2023-05-10T16:02:30.513Z,6.25
2023-05-10T16:05:18.182Z,5.43
2023-05-10T16:08:05.726Z,9.23
2023-05-10T16:10:53.248Z,7.15
2023-05-10T16:13:40.541Z,6.85
2023-05-10T16:16:28.045Z,5.97
2023-05-10T16:19:15.929Z,5.30
2023-05-10T16:22:03.391Z,6.30
2023-05-10T16:24:53.659Z,6.93
2023-05-10T16:27:41.075Z,6.63
2023-05-10T16:30:30.424Z,7.40
2023-05-10T16:33:17.619Z,7.97
2023-05-10T16:36:06.168Z,8.57
2023-05-10T16:38:53.366Z,7.20
2023-05-10T16:41:40.670Z,5.28
2023-05-10T16:44:28.357Z,9.93
2023-05-10T16:47:15.627Z,5.80
2023-05-10T16:50:04.540Z,8.63
2023-05-10T16:52:51.853Z,9.73
2023-05-10T16:55:39.107Z,7.95
2023-05-10T16:58:26.523Z,7.60
2023-05-10T17:01:13.777Z,10.73
2023-05-10T17:04:01.127Z,9.05
2023-05-10T17:06:48.302Z,11.50
2023-05-10T17:09:35.818Z,11.02
2023-05-10T17:12:23.010Z,10.50
2023-05-10T17:15:10.725Z,11.07
2023-05-10T17:17:58.233Z,11.43
2023-05-10T17:20:45.430Z,9.95
2023-05-10T17:23:32.613Z,10.20
2023-05-10T17:26:19.784Z,12.20
2023-05-10T17:29:07.031Z,10.45
2023-05-10T17:31:54.218Z,11.68
2023-05-10T17:34:41.528Z,14.10
2023-05-10T17:37:29.936Z,12.88
2023-05-10T17:40:17.433Z,10.50
2023-05-10T17:43:04.587Z,10.98
2023-05-10T17:45:51.834Z,16.45
2023-05-10T17:48:39.226Z,12.13
2023-05-10T17:51:26.697Z,11.98
2023-05-10T17:54:14.824Z,13.55
2023-05-10T17:57:03.638Z,13.27
2023-05-10T17:59:51.261Z,11.43
2023-05-10T18:02:38.612Z,13.13
2023-05-10T18:05:25.875Z,12.48
2023-05-10T18:08:13.326Z,14.77
2023-05-10T18:11:00.457Z,15.88
2023-05-10T18:13:47.676Z,11.40
2023-05-10T18:16:34.888Z,12.27
2023-05-10T18:19:25.292Z,11.70
2023-05-10T18:22:12.708Z,13.18
2023-05-10T18:24:59.957Z,14.75
2023-05-10T18:27:47.600Z,12.20
2023-05-10T18:30:35.201Z,11.18
2023-05-10T18:33:22.584Z,12.10
2023-05-10T18:36:09.808Z,11.30
2023-05-10T18:38:57.107Z,10.82
2023-05-10T18:41:45.768Z,12.15
2023-05-10T18:44:33.048Z,16.08
2023-05-10T18:47:20.305Z,10.65
2023-05-10T18:50:08.108Z,10.88
2023-05-10T18:52:56.216Z,13.18
2023-05-10T18:55:44.775Z,12.02
2023-05-10T18:58:32.295Z,11.45
2023-05-10T19:01:19.588Z,13.68
2023-05-10T19:04:06.832Z,13.32
2023-05-10T19:06:54.161Z,14.02
2023-05-10T19:09:41.378Z,13.57
2023-05-10T19:12:28.618Z,13.65
2023-05-10T19:15:17.135Z,10.88
2023-05-10T19:18:06.378Z,12.13
2023-05-10T19:20:57.768Z,11.40
2023-05-10T19:23:46.193Z,13.18
2023-05-10T19:26:35.199Z,14.27
2023-05-10T19:29:23.251Z,14.07
2023-05-10T19:32:11.575Z,12.73
2023-05-10T19:34:58.770Z,13.85
2023-05-10T19:37:47.321Z,13.90
2023-05-10T19:40:34.746Z,15.75
2023-05-10T19:43:21.895Z,11.68
2023-05-10T19:46:09.827Z,13.07
2023-05-10T19:48:57.214Z,14.38
2023-05-10T19:51:44.559Z,14.35
2023-05-10T19:54:31.824Z,14.77
2023-05-10T19:57:20.899Z,11.27
2023-05-10T20:00:08.874Z,14.30
2023-05-10T20:02:56.303Z,16.20
2023-05-10T20:05:43.514Z,15.32
2023-05-10T20:08:31.128Z,16.17
2023-05-10T20:11:18.372Z,13.07
2023-05-10T20:14:05.903Z,14.13
2023-05-10T20:16:53.121Z,13.50
2023-05-10T20:19:40.365Z,11.95
2023-05-10T20:22:27.617Z,16.33
2023-05-10T20:25:16.021Z,20.40
2023-05-10T20:28:03.874Z,17.60
2023-05-10T20:30:54.521Z,15.93
2023-05-10T20:33:41.787Z,15.57
2023-05-10T20:36:29.462Z,17.63
2023-05-10T20:39:16.947Z,13.13
2023-05-10T20:42:04.470Z,16.05
2023-05-10T20:44:51.768Z,14.50
2023-05-10T20:47:39.108Z,11.48
2023-05-10T20:50:26.509Z,14.65
2023-05-10T20:53:14.765Z,16.92
2023-05-10T20:56:02.408Z,14.57
2023-05-10T20:58:49.661Z,16.85
2023-05-10T21:01:36.990Z,14.73
2023-05-10T21:04:25.808Z,16.90
2023-05-10T21:07:13.230Z,14.52
2023-05-10T21:10:00.455Z,17.60
2023-05-10T21:12:48.097Z,15.43
2023-05-10T21:15:35.446Z,14.60
2023-05-10T21:18:22.776Z,14.70
2023-05-10T21:21:10.134Z,14.68
2023-05-10T21:23:57.452Z,14.27
2023-05-10T21:26:44.697Z,18.30
2023-05-10T21:29:32.091Z,15.25
2023-05-10T21:32:19.443Z,15.65
2023-05-10T21:35:07.479Z,17.13
2023-05-10T21:37:54.665Z,16.25
2023-05-10T21:40:41.953Z,16.90
2023-05-10T21:43:29.211Z,17.05
2023-05-10T21:46:16.553Z,14.60
2023-05-10T21:49:03.773Z,16.63
2023-05-10T21:51:50.925Z,15.75
2023-05-10T21:54:38.971Z,14.60
2023-05-10T21:57:26.212Z,14.70
2023-05-10T22:00:14.138Z,15.73
2023-05-10T22:03:01.505Z,18.15
2023-05-10T22:05:48.751Z,15.32
2023-05-10T22:08:36.091Z,13.32
2023-05-10T22:11:23.270Z,14.05
2023-05-10T22:14:10.464Z,13.45
2023-05-10T22:16:58.115Z,14.07
2023-05-10T22:19:45.405Z,12.60
2023-05-10T22:22:32.576Z,14.65
2023-05-10T22:25:19.819Z,17.65
2023-05-10T22:28:08.021Z,16.75
2023-05-10T22:30:55.472Z,16.15
2023-05-10T22:33:42.645Z,18.95
2023-05-10T22:36:30.709Z,16.63
2023-05-10T22:39:17.864Z,17.73
2023-05-10T22:42:05.102Z,15.95
2023-05-10T22:44:52.316Z,14.63
2023-05-10T22:47:39.623Z,18.33
2023-05-10T22:50:27.203Z,15.50
2023-05-10T22:53:14.442Z,18.92
2023-05-10T22:56:02.251Z,19.98
2023-05-10T22:58:50.270Z,16.80
2023-05-10T23:01:37.560Z,17.70
2023-05-10T23:04:24.885Z,15.90
2023-05-10T23:07:12.164Z,19.02
2023-05-10T23:09:59.342Z,19.70
2023-05-10T23:12:46.841Z,20.40
2023-05-10T23:15:35.621Z,18.02
2023-05-10T23:18:22.817Z,16.20
2023-05-10T23:21:10.171Z,14.75
2023-05-10T23:23:57.362Z,15.32
2023-05-10T23:26:46.468Z,14.93
2023-05-10T23:29:34.788Z,13.65
2023-05-10T23:32:22.929Z,13.32
2023-05-10T23:35:10.734Z,13.73
2023-05-10T23:37:57.990Z,10.05
2023-05-10T23:40:50.864Z,11.50
2023-05-10T23:43:38.057Z,14.48
2023-05-10T23:46:25.365Z,8.63
2023-05-10T23:49:12.598Z,9.43
2023-05-10T23:51:59.874Z,11.80
2023-05-10T23:54:47.332Z,14.32
2023-05-10T23:57:34.530Z,11.05
